NCAR-RAP Real-Time Weather Data

Output produced by METARs form (23 February 2020  00:18 UTC)
found at http://weather.rap.ucar.edu/surface/
 
KHLN 222353Z 26014G20KT 10SM CLR 11/M07 A2990 RMK AO2 PK WND 26026/2313 SLP159 T01111072 10133 20028 55000
KHLN 222253Z 27017G24KT 10SM CLR 12/M07 A2988 RMK AO2 PK WND 27030/2230 SLP148 T01221072
KHLN 222153Z 27017G23KT 10SM CLR 13/M08 A2987 RMK AO2 SLP146 T01281078
KHLN 222053Z 24013G21KT 10SM CLR 13/M08 A2990 RMK AO2 SLP152 T01281078 58031
KHLN 221953Z 00000KT 10SM CLR 10/M08 A2993 RMK AO2 SLP169 T01001083
KHLN 221853Z 00000KT 10SM CLR 06/M09 A2997 RMK AO2 SLP191 T00611094
KHLN 221753Z 00000KT 10SM FEW070 03/M10 A3000 RMK AO2 SLP201 T00281100 10028 21056 58003
KHLN 221653Z 32004KT 10SM CLR 01/M11 A3001 RMK AO2 SLP201 T00061106
KHLN 221553Z 28004KT 10SM CLR M03/M10 A3002 RMK AO2 SLP209 T10281100
KHLN 221453Z 33004KT 10SM CLR M04/M11 A3001 RMK AO2 SLP210 T10441106 55003
KHLN 221353Z 24003KT 10SM CLR M04/M11 A3000 RMK AO2 SLP204 T10391111
KHLN 221253Z AUTO 00000KT 10SM CLR M04/M12 A3001 RMK AO2 SLP206 T10441117
KHLN 221153Z AUTO 00000KT 10SM CLR M06/M12 A3002 RMK AO2 SLP206 T10561117 10006 21056 53000
KHLN 221053Z AUTO 00000KT 10SM CLR M03/M12 A3001 RMK AO2 SLP197 T10331122
KHLN 220953Z AUTO 27005KT 10SM CLR M05/M12 A3002 RMK AO2 SLP206 T10501122
KHLN 220853Z AUTO 27003KT 10SM CLR M04/M12 A3002 RMK AO2 SLP205 T10391122 56006
KHLN 220753Z AUTO 27005KT 10SM CLR M04/M12 A3002 RMK AO2 SLP211 T10391122
KHLN 220653Z AUTO 29005KT 10SM CLR M04/M12 A3002 RMK AO2 SLP218 T10441122 401061111
KHLN 220553Z AUTO 00000KT 10SM CLR M01/M12 A3004 RMK AO2 SLP220 T10061122 10089 21011 58002
KHLN 220453Z AUTO 00000KT 10SM CLR 03/M13 A3004 RMK AO2 SLP220 T00331128
KHLN 220353Z 23003KT 10SM CLR 04/M13 A3004 RMK AO2 SLP220 T00391128
KHLN 220253Z 19004KT 10SM CLR 03/M13 A3004 RMK AO2 SLP231 T00281128 53004
KHLN 220153Z 27005KT 10SM CLR 04/M13 A3003 RMK AO2 SLP222 T00441133
KHLN 220053Z 29005KT 10SM CLR 06/M14 A3003 RMK AO2 SLP218 T00611139
KHLN 212353Z 26008G15KT 10SM CLR 09/M14 A3003 RMK AO2 SLP215 T00891144 10106 20000 56017
KHLN 212253Z 30012G19KT 10SM CLR 10/M15 A3004 RMK AO2 SLP213 T01001150
KHLN 212153Z VRB05KT 10SM CLR 08/M15 A3005 RMK AO2 SLP220 T00831150
KHLN 212053Z 09005KT 10SM CLR 07/M16 A3009 RMK AO2 SLP236 T00671161 57030
KHLN 211953Z 11006KT 10SM CLR 05/M16 A3012 RMK AO2 SLP248 T00501161
KHLN 211853Z VRB04KT 10SM CLR 02/M14 A3015 RMK AO2 SLP264 T00171139
KHLN 211753Z 00000KT 10SM CLR M01/M12 A3019 RMK AO2 SLP280 T10061122 11006 21111 58009
KHLN 211653Z 00000KT 10SM CLR M04/M12 A3021 RMK AO2 SLP292 T10391117
KHLN 211553Z 00000KT 10SM CLR M06/M13 A3022 RMK AO2 SLP299 T10561128
KHLN 211453Z 00000KT 10SM CLR M09/M14 A3022 RMK AO2 SLP300 T10941139 50002
KHLN 211353Z 24003KT 10SM CLR M09/M14 A3022 RMK AO2 SLP302 T10891139
KHLN 211253Z 00000KT 10SM CLR M09/M14 A3022 RMK AO2 SLP296 T10891139
KHLN 211153Z AUTO 10SM CLR M09/M14 A3021 RMK AO2 SLP290 7//// T10891139 11050 21089 55003
KHLN 211053Z AUTO 24003KT 10SM CLR M07/M13 A3021 RMK AO2 SLP283 T10671133
KHLN 210953Z AUTO 28006KT 10SM CLR M07/M13 A3021 RMK AO2 SLP287 T10671133
KHLN 210853Z AUTO 26005KT 10SM CLR M08/M13 A3022 RMK AO2 SLP293 T10831133 56017
KHLN 210753Z AUTO 22003KT 10SM CLR M07/M13 A3023 RMK AO2 SLP298 T10671128
KHLN 210653Z AUTO 00000KT 10SM CLR M05/M12 A3024 RMK AO2 SLP301 T10501122 400331128
KHLN 210553Z AUTO 00000KT 10SM CLR M06/M12 A3027 RMK AO2 SLP316 T10561122 10028 21061 53004
KHLN 210453Z AUTO 21003KT 10SM CLR M04/M12 A3027 RMK AO2 SLP318 T10391122
KHLN 210353Z 00000KT 10SM CLR M03/M12 A3026 RMK AO2 SLP319 T10331122
KHLN 210253Z 23004KT 10SM CLR M02/M12 A3026 RMK AO2 SLP319 T10171122 53003
KHLN 210153Z 26006KT 10SM CLR M02/M12 A3026 RMK AO2 SLP317 T10221122
KHLN 210053Z 00000KT 10SM CLR 01/M12 A3025 RMK AO2 SLP308 T00061122